sensor_id;sensor_type;location;lat;lon;timestamp;pressure;altitude;pressure_sealevel;temperature;humidity
11605;BME280;5858;43.076;25.626;2022-11-15T00:01:26;99951.31;;;8.90;100.00
11605;BME280;5858;43.076;25.626;2022-11-15T00:03:53;100032.63;;;9.47;100.00
11605;BME280;5858;43.076;25.626;2022-11-15T00:06:21;100053.41;;;9.61;100.00
11605;BME280;5858;43.076;25.626;2022-11-15T00:08:51;99989.06;;;9.21;100.00
11605;BME280;5858;43.076;25.626;2022-11-15T00:11:25;100065.25;;;9.59;100.00
11605;BME280;5858;43.076;25.626;2022-11-15T00:13:58;100018.00;;;9.33;100.00
11605;BME280;5858;43.076;25.626;2022-11-15T00:16:31;99993.19;;;9.15;100.00
11605;BME280;5858;43.076;25.626;2022-11-15T00:19:02;100076.72;;;9.51;100.00
11605;BME280;5858;43.076;25.626;2022-11-15T00:21:34;100012.44;;;9.27;100.00
11605;BME280;5858;43.076;25.626;2022-11-15T00:24:06;99858.91;;;8.37;100.00
11605;BME280;5858;43.076;25.626;2022-11-15T00:26:40;99924.41;;;8.57;100.00
11605;BME280;5858;43.076;25.626;2022-11-15T00:29:44;99980.50;;;8.91;100.00
11605;BME280;5858;43.076;25.626;2022-11-15T00:32:21;99948.22;;;8.76;100.00
11605;BME280;5858;43.076;25.626;2022-11-15T00:34:49;99881.97;;;8.28;100.00
11605;BME280;5858;43.076;25.626;2022-11-15T00:37:27;99856.94;;;8.21;100.00
11605;BME280;5858;43.076;25.626;2022-11-15T00:40:05;99959.63;;;8.87;100.00
11605;BME280;5858;43.076;25.626;2022-11-15T00:42:36;100040.19;;;9.34;100.00
11605;BME280;5858;43.076;25.626;2022-11-15T00:45:15;100022.88;;;9.12;100.00
11605;BME280;5858;43.076;25.626;2022-11-15T00:47:50;99872.91;;;8.39;100.00
11605;BME280;5858;43.076;25.626;2022-11-15T00:50:28;99926.09;;;8.58;100.00
11605;BME280;5858;43.076;25.626;2022-11-15T00:53:09;99857.38;;;8.34;100.00
11605;BME280;5858;43.076;25.626;2022-11-15T00:55:41;100040.25;;;9.42;100.00
11605;BME280;5858;43.076;25.626;2022-11-15T00:58:20;99955.91;;;8.79;100.00
11605;BME280;5858;43.076;25.626;2022-11-15T01:01:10;99841.09;;;8.19;100.00
11605;BME280;5858;43.076;25.626;2022-11-15T01:03:43;99903.66;;;8.51;100.00
11605;BME280;5858;43.076;25.626;2022-11-15T01:06:12;99904.81;;;8.66;100.00
11605;BME280;5858;43.076;25.626;2022-11-15T01:08:49;99878.16;;;8.48;100.00
11605;BME280;5858;43.076;25.626;2022-11-15T01:11:25;99939.78;;;8.89;100.00
11605;BME280;5858;43.076;25.626;2022-11-15T01:13:55;100040.16;;;9.52;100.00
11605;BME280;5858;43.076;25.626;2022-11-15T01:16:24;99862.94;;;8.67;100.00
11605;BME280;5858;43.076;25.626;2022-11-15T01:18:53;99886.28;;;8.65;100.00
11605;BME280;5858;43.076;25.626;2022-11-15T01:21:28;99917.72;;;8.79;100.00
11605;BME280;5858;43.076;25.626;2022-11-15T01:24:03;99980.19;;;9.20;100.00
11605;BME280;5858;43.076;25.626;2022-11-15T01:26:41;100003.53;;;9.44;100.00
11605;BME280;5858;43.076;25.626;2022-11-15T01:29:11;99849.50;;;8.33;100.00
11605;BME280;5858;43.076;25.626;2022-11-15T01:31:42;99945.06;;;8.99;100.00
11605;BME280;5858;43.076;25.626;2022-11-15T01:34:14;99858.03;;;8.54;100.00
11605;BME280;5858;43.076;25.626;2022-11-15T01:36:47;99942.06;;;9.02;100.00
11605;BME280;5858;43.076;25.626;2022-11-15T01:39:33;99999.34;;;9.41;100.00
11605;BME280;5858;43.076;25.626;2022-11-15T01:42:03;99907.72;;;8.81;100.00
11605;BME280;5858;43.076;25.626;2022-11-15T01:44:43;100009.25;;;9.49;100.00
11605;BME280;5858;43.076;25.626;2022-11-15T01:47:16;99856.81;;;8.48;100.00
11605;BME280;5858;43.076;25.626;2022-11-15T01:49:58;99898.25;;;8.87;100.00
11605;BME280;5858;43.076;25.626;2022-11-15T01:52:36;99958.19;;;9.26;100.00
11605;BME280;5858;43.076;25.626;2022-11-15T01:55:07;99982.25;;;9.26;100.00
11605;BME280;5858;43.076;25.626;2022-11-15T01:57:49;99872.31;;;8.71;100.00
11605;BME280;5858;43.076;25.626;2022-11-15T02:00:26;99964.41;;;9.35;100.00
11605;BME280;5858;43.076;25.626;2022-11-15T02:02:55;99826.72;;;8.56;100.00
11605;BME280;5858;43.076;25.626;2022-11-15T02:05:33;99909.78;;;8.95;100.00
11605;BME280;5858;43.076;25.626;2022-11-15T02:08:02;99982.41;;;9.59;100.00
11605;BME280;5858;43.076;25.626;2022-11-15T02:10:31;99921.59;;;9.10;100.00
11605;BME280;5858;43.076;25.626;2022-11-15T02:13:00;99891.44;;;8.92;100.00
11605;BME280;5858;43.076;25.626;2022-11-15T02:15:47;99932.09;;;9.12;100.00
11605;BME280;5858;43.076;25.626;2022-11-15T02:18:27;99869.13;;;8.67;100.00
11605;BME280;5858;43.076;25.626;2022-11-15T02:21:17;99896.25;;;8.89;100.00
11605;BME280;5858;43.076;25.626;2022-11-15T02:30:02;99980.09;;;9.64;100.00
11605;BME280;5858;43.076;25.626;2022-11-15T02:32:40;99913.97;;;9.24;100.00
11605;BME280;5858;43.076;25.626;2022-11-15T02:35:26;99866.38;;;8.85;100.00
11605;BME280;5858;43.076;25.626;2022-11-15T02:38:10;99982.75;;;9.64;100.00
11605;BME280;5858;43.076;25.626;2022-11-15T02:40:49;99785.75;;;8.39;100.00
11605;BME280;5858;43.076;25.626;2022-11-15T02:43:59;99810.78;;;8.46;100.00
11605;BME280;5858;43.076;25.626;2022-11-15T02:50:02;99843.28;;;8.68;100.00
11605;BME280;5858;43.076;25.626;2022-11-15T02:52:33;99960.22;;;9.32;100.00
11605;BME280;5858;43.076;25.626;2022-11-15T02:55:25;99955.03;;;9.57;100.00
11605;BME280;5858;43.076;25.626;2022-11-15T03:01:21;99959.19;;;9.59;100.00
11605;BME280;5858;43.076;25.626;2022-11-15T03:04:03;99876.09;;;8.94;100.00
11605;BME280;5858;43.076;25.626;2022-11-15T03:06:47;99956.38;;;9.27;100.00
11605;BME280;5858;43.076;25.626;2022-11-15T03:09:28;99917.00;;;9.29;100.00
11605;BME280;5858;43.076;25.626;2022-11-15T03:12:03;99904.75;;;9.18;100.00
11605;BME280;5858;43.076;25.626;2022-11-15T03:14:35;99954.84;;;9.58;100.00
11605;BME280;5858;43.076;25.626;2022-11-15T03:17:10;99955.38;;;9.62;100.00
11605;BME280;5858;43.076;25.626;2022-11-15T03:19:42;99799.66;;;8.51;100.00
11605;BME280;5858;43.076;25.626;2022-11-15T03:22:15;99977.56;;;9.54;100.00
11605;BME280;5858;43.076;25.626;2022-11-15T03:25:08;99916.22;;;9.02;100.00
11605;BME280;5858;43.076;25.626;2022-11-15T03:27:41;99957.94;;;9.45;100.00
11605;BME280;5858;43.076;25.626;2022-11-15T03:30:14;99792.97;;;8.47;100.00
11605;BME280;5858;43.076;25.626;2022-11-15T03:32:49;99925.34;;;9.34;100.00
11605;BME280;5858;43.076;25.626;2022-11-15T03:35:27;99895.03;;;9.09;100.00
11605;BME280;5858;43.076;25.626;2022-11-15T03:38:24;99848.81;;;8.74;100.00
11605;BME280;5858;43.076;25.626;2022-11-15T03:41:05;99942.22;;;9.34;100.00
11605;BME280;5858;43.076;25.626;2022-11-15T03:43:39;99947.97;;;9.48;100.00
11605;BME280;5858;43.076;25.626;2022-11-15T03:46:21;99891.41;;;9.18;100.00
11605;BME280;5858;43.076;25.626;2022-11-15T03:48:53;99768.25;;;8.37;100.00
11605;BME280;5858;43.076;25.626;2022-11-15T03:51:23;99944.16;;;9.50;100.00
11605;BME280;5858;43.076;25.626;2022-11-15T03:53:54;99955.50;;;9.52;100.00
11605;BME280;5858;43.076;25.626;2022-11-15T03:56:24;99855.03;;;8.83;100.00
11605;BME280;5858;43.076;25.626;2022-11-15T03:58:53;99889.75;;;9.17;100.00
11605;BME280;5858;43.076;25.626;2022-11-15T04:01:24;99901.44;;;9.24;100.00
11605;BME280;5858;43.076;25.626;2022-11-15T04:04:01;99937.44;;;9.46;100.00
11605;BME280;5858;43.076;25.626;2022-11-15T04:06:31;99789.53;;;8.55;100.00
11605;BME280;5858;43.076;25.626;2022-11-15T04:09:06;99838.06;;;8.92;100.00
11605;BME280;5858;43.076;25.626;2022-11-15T04:11:37;99892.56;;;9.15;100.00
11605;BME280;5858;43.076;25.626;2022-11-15T04:14:09;99890.38;;;9.11;100.00
11605;BME280;5858;43.076;25.626;2022-11-15T04:16:45;99945.91;;;9.41;100.00
11605;BME280;5858;43.076;25.626;2022-11-15T04:19:26;99924.09;;;9.46;100.00
11605;BME280;5858;43.076;25.626;2022-11-15T04:22:10;99860.81;;;9.04;100.00
11605;BME280;5858;43.076;25.626;2022-11-15T04:24:56;99938.56;;;9.43;100.00
11605;BME280;5858;43.076;25.626;2022-11-15T04:27:26;99827.16;;;8.77;100.00
11605;BME280;5858;43.076;25.626;2022-11-15T04:29:53;99796.78;;;8.70;100.00
11605;BME280;5858;43.076;25.626;2022-11-15T04:32:27;99951.31;;;9.50;100.00
11605;BME280;5858;43.076;25.626;2022-11-15T04:34:58;99869.88;;;9.11;100.00
11605;BME280;5858;43.076;25.626;2022-11-15T04:37:45;99835.56;;;8.91;100.00
11605;BME280;5858;43.076;25.626;2022-11-15T04:40:20;99870.16;;;9.00;100.00
11605;BME280;5858;43.076;25.626;2022-11-15T04:42:52;99877.34;;;9.08;100.00
11605;BME280;5858;43.076;25.626;2022-11-15T04:45:21;99803.06;;;8.35;100.00
11605;BME280;5858;43.076;25.626;2022-11-15T04:47:48;99915.31;;;9.28;100.00
11605;BME280;5858;43.076;25.626;2022-11-15T04:50:19;99913.13;;;9.23;100.00
11605;BME280;5858;43.076;25.626;2022-11-15T04:52:55;99742.09;;;8.14;100.00
11605;BME280;5858;43.076;25.626;2022-11-15T04:55:23;99845.22;;;8.92;100.00
11605;BME280;5858;43.076;25.626;2022-11-15T04:58:00;99853.44;;;8.98;100.00
11605;BME280;5858;43.076;25.626;2022-11-15T05:00:28;99840.56;;;8.94;100.00
11605;BME280;5858;43.076;25.626;2022-11-15T05:02:58;99820.81;;;8.78;100.00
11605;BME280;5858;43.076;25.626;2022-11-15T05:05:45;99913.34;;;9.38;100.00
11605;BME280;5858;43.076;25.626;2022-11-15T05:08:20;99766.78;;;8.42;100.00
11605;BME280;5858;43.076;25.626;2022-11-15T05:10:55;99937.91;;;9.41;100.00
11605;BME280;5858;43.076;25.626;2022-11-15T05:13:26;99772.09;;;8.42;100.00
11605;BME280;5858;43.076;25.626;2022-11-15T05:15:54;99810.13;;;8.70;100.00
11605;BME280;5858;43.076;25.626;2022-11-15T05:18:25;99927.72;;;9.45;100.00
11605;BME280;5858;43.076;25.626;2022-11-15T05:20:55;99822.00;;;8.84;100.00
11605;BME280;5858;43.076;25.626;2022-11-15T05:23:22;99883.56;;;9.17;100.00
11605;BME280;5858;43.076;25.626;2022-11-15T05:25:53;99903.28;;;9.24;100.00
11605;BME280;5858;43.076;25.626;2022-11-15T05:28:31;99773.97;;;8.50;100.00
11605;BME280;5858;43.076;25.626;2022-11-15T05:31:05;99918.38;;;9.41;100.00
11605;BME280;5858;43.076;25.626;2022-11-15T05:33:38;99944.91;;;9.42;100.00
11605;BME280;5858;43.076;25.626;2022-11-15T05:36:10;99865.09;;;8.97;100.00
11605;BME280;5858;43.076;25.626;2022-11-15T05:38:40;99762.78;;;8.46;100.00
11605;BME280;5858;43.076;25.626;2022-11-15T05:41:13;99831.50;;;8.78;100.00
11605;BME280;5858;43.076;25.626;2022-11-15T05:43:46;99925.59;;;9.49;100.00
11605;BME280;5858;43.076;25.626;2022-11-15T05:46:15;99925.22;;;9.43;100.00
11605;BME280;5858;43.076;25.626;2022-11-15T05:48:55;99774.13;;;8.48;100.00
11605;BME280;5858;43.076;25.626;2022-11-15T05:51:53;99805.22;;;8.58;100.00
11605;BME280;5858;43.076;25.626;2022-11-15T05:54:30;99950.81;;;9.46;100.00
11605;BME280;5858;43.076;25.626;2022-11-15T05:57:05;99918.53;;;9.39;100.00
11605;BME280;5858;43.076;25.626;2022-11-15T05:59:33;99928.28;;;9.49;100.00
11605;BME280;5858;43.076;25.626;2022-11-15T06:02:03;99923.34;;;9.36;100.00
11605;BME280;5858;43.076;25.626;2022-11-15T06:04:30;99921.84;;;9.33;100.00
11605;BME280;5858;43.076;25.626;2022-11-15T06:06:58;99917.34;;;9.34;100.00
11605;BME280;5858;43.076;25.626;2022-11-15T06:09:28;99935.41;;;9.40;100.00
11605;BME280;5858;43.076;25.626;2022-11-15T06:11:55;99911.78;;;9.19;100.00
11605;BME280;5858;43.076;25.626;2022-11-15T06:14:24;99866.25;;;8.95;100.00
11605;BME280;5858;43.076;25.626;2022-11-15T06:16:51;99868.94;;;8.95;100.00
11605;BME280;5858;43.076;25.626;2022-11-15T06:19:18;99936.59;;;9.45;100.00
11605;BME280;5858;43.076;25.626;2022-11-15T06:21:45;99929.72;;;9.43;100.00
11605;BME280;5858;43.076;25.626;2022-11-15T06:24:12;99920.25;;;9.49;100.00
11605;BME280;5858;43.076;25.626;2022-11-15T06:26:39;99928.28;;;9.49;100.00
11605;BME280;5858;43.076;25.626;2022-11-15T06:29:05;99911.19;;;9.41;100.00
11605;BME280;5858;43.076;25.626;2022-11-15T06:31:36;99938.63;;;9.52;100.00
11605;BME280;5858;43.076;25.626;2022-11-15T06:34:06;99911.94;;;9.18;100.00
11605;BME280;5858;43.076;25.626;2022-11-15T06:36:34;99907.75;;;9.15;100.00
11605;BME280;5858;43.076;25.626;2022-11-15T06:39:02;99950.81;;;9.46;100.00
11605;BME280;5858;43.076;25.626;2022-11-15T06:41:29;99975.88;;;9.53;100.00
11605;BME280;5858;43.076;25.626;2022-11-15T06:43:56;99776.28;;;8.45;100.00
11605;BME280;5858;43.076;25.626;2022-11-15T06:46:23;99920.34;;;9.31;100.00
11605;BME280;5858;43.076;25.626;2022-11-15T06:48:52;99965.03;;;9.55;100.00
11605;BME280;5858;43.076;25.626;2022-11-15T06:51:19;99900.38;;;9.09;100.00
11605;BME280;5858;43.076;25.626;2022-11-15T06:53:46;99939.56;;;9.42;100.00
11605;BME280;5858;43.076;25.626;2022-11-15T06:56:13;99856.06;;;8.90;100.00
11605;BME280;5858;43.076;25.626;2022-11-15T06:58:41;99886.03;;;9.10;100.00
11605;BME280;5858;43.076;25.626;2022-11-15T07:01:10;99894.44;;;9.23;100.00
11605;BME280;5858;43.076;25.626;2022-11-15T07:03:39;99852.16;;;9.02;100.00
11605;BME280;5858;43.076;25.626;2022-11-15T07:06:10;99925.59;;;9.49;100.00
11605;BME280;5858;43.076;25.626;2022-11-15T07:08:37;99852.75;;;8.96;100.00
11605;BME280;5858;43.076;25.626;2022-11-15T07:11:05;99953.22;;;9.65;100.00
11605;BME280;5858;43.076;25.626;2022-11-15T07:13:55;99782.72;;;8.60;100.00
11605;BME280;5858;43.076;25.626;2022-11-15T07:16:36;99942.88;;;9.70;100.00
11605;BME280;5858;43.076;25.626;2022-11-15T07:19:03;99886.84;;;9.44;100.00
11605;BME280;5858;43.076;25.626;2022-11-15T07:21:42;99883.03;;;9.47;100.00
11605;BME280;5858;43.076;25.626;2022-11-15T07:24:09;99850.91;;;9.31;100.00
11605;BME280;5858;43.076;25.626;2022-11-15T07:26:39;99938.72;;;9.76;100.00
11605;BME280;5858;43.076;25.626;2022-11-15T07:29:09;99931.84;;;9.65;100.00
11605;BME280;5858;43.076;25.626;2022-11-15T07:31:36;99887.53;;;9.46;100.00
11605;BME280;5858;43.076;25.626;2022-11-15T07:34:03;99920.97;;;9.67;100.00
11605;BME280;5858;43.076;25.626;2022-11-15T07:36:30;99921.97;;;9.66;100.00
11605;BME280;5858;43.076;25.626;2022-11-15T07:38:58;99923.66;;;9.67;100.00
11605;BME280;5858;43.076;25.626;2022-11-15T07:41:25;99937.69;;;9.69;100.00
11605;BME280;5858;43.076;25.626;2022-11-15T07:43:53;99905.91;;;9.50;100.00
11605;BME280;5858;43.076;25.626;2022-11-15T07:46:20;99858.75;;;9.32;100.00
11605;BME280;5858;43.076;25.626;2022-11-15T07:48:48;99920.00;;;9.76;100.00
11605;BME280;5858;43.076;25.626;2022-11-15T07:51:16;99891.91;;;9.56;100.00
11605;BME280;5858;43.076;25.626;2022-11-15T07:53:43;99911.28;;;9.66;100.00
11605;BME280;5858;43.076;25.626;2022-11-15T07:56:12;99887.91;;;9.60;100.00
11605;BME280;5858;43.076;25.626;2022-11-15T07:58:39;99920.84;;;9.76;100.00
11605;BME280;5858;43.076;25.626;2022-11-15T08:01:07;99905.81;;;9.75;100.00
11605;BME280;5858;43.076;25.626;2022-11-15T08:03:35;99887.41;;;9.72;100.00
11605;BME280;5858;43.076;25.626;2022-11-15T08:06:02;99844.13;;;9.53;100.00
11605;BME280;5858;43.076;25.626;2022-11-15T08:08:30;99916.53;;;9.92;100.00
11605;BME280;5858;43.076;25.626;2022-11-15T08:10:58;99903.53;;;9.97;100.00
11605;BME280;5858;43.076;25.626;2022-11-15T08:13:27;99874.22;;;9.63;100.00
11605;BME280;5858;43.076;25.626;2022-11-15T08:15:57;99822.06;;;9.42;100.00
11605;BME280;5858;43.076;25.626;2022-11-15T08:18:24;99901.69;;;9.97;100.00
11605;BME280;5858;43.076;25.626;2022-11-15T08:20:51;99824.78;;;9.59;100.00
11605;BME280;5858;43.076;25.626;2022-11-15T08:23:18;99903.53;;;10.13;100.00
11605;BME280;5858;43.076;25.626;2022-11-15T08:25:45;99803.75;;;9.56;100.00
11605;BME280;5858;43.076;25.626;2022-11-15T08:28:12;99910.88;;;10.19;100.00
11605;BME280;5858;43.076;25.626;2022-11-15T08:30:42;99896.53;;;10.20;100.00
11605;BME280;5858;43.076;25.626;2022-11-15T08:33:12;99824.78;;;9.59;100.00
11605;BME280;5858;43.076;25.626;2022-11-15T08:35:40;99873.78;;;10.08;100.00
11605;BME280;5858;43.076;25.626;2022-11-15T08:38:07;99714.53;;;9.16;100.00
11605;BME280;5858;43.076;25.626;2022-11-15T08:40:35;99841.16;;;9.80;100.00
11605;BME280;5858;43.076;25.626;2022-11-15T08:43:02;99700.50;;;9.06;100.00
11605;BME280;5858;43.076;25.626;2022-11-15T08:45:29;99861.75;;;10.12;98.40
11605;BME280;5858;43.076;25.626;2022-11-15T08:48:00;99864.59;;;10.10;97.51
11605;BME280;5858;43.076;25.626;2022-11-15T08:50:28;99755.47;;;9.65;97.72
11605;BME280;5858;43.076;25.626;2022-11-15T08:52:59;99798.56;;;9.78;97.37
11605;BME280;5858;43.076;25.626;2022-11-15T08:55:30;99816.47;;;10.02;98.27
11605;BME280;5858;43.076;25.626;2022-11-15T08:57:57;99815.47;;;10.03;97.05
11605;BME280;5858;43.076;25.626;2022-11-15T09:00:24;99745.97;;;9.71;97.09
11605;BME280;5858;43.076;25.626;2022-11-15T09:02:52;99834.38;;;10.26;96.65
11605;BME280;5858;43.076;25.626;2022-11-15T09:05:20;99816.31;;;10.20;96.82
11605;BME280;5858;43.076;25.626;2022-11-15T09:07:52;99852.75;;;10.54;96.33
11605;BME280;5858;43.076;25.626;2022-11-15T09:10:21;99850.56;;;10.57;96.47
11605;BME280;5858;43.076;25.626;2022-11-15T09:12:48;99777.69;;;10.15;95.89
11605;BME280;5858;43.076;25.626;2022-11-15T09:15:16;99818.31;;;10.43;95.74
11605;BME280;5858;43.076;25.626;2022-11-15T09:17:43;99849.00;;;10.71;95.75
11605;BME280;5858;43.076;25.626;2022-11-15T09:20:10;99841.66;;;10.65;95.27
11605;BME280;5858;43.076;25.626;2022-11-15T09:22:39;99741.63;;;10.02;95.39
11605;BME280;5858;43.076;25.626;2022-11-15T09:25:07;99825.63;;;10.65;94.60
11605;BME280;5858;43.076;25.626;2022-11-15T09:27:34;99829.63;;;10.61;94.51
11605;BME280;5858;43.076;25.626;2022-11-15T09:30:01;99760.81;;;10.22;95.00
11605;BME280;5858;43.076;25.626;2022-11-15T09:32:28;99768.00;;;10.22;94.79
11605;BME280;5858;43.076;25.626;2022-11-15T09:34:56;99749.59;;;10.19;95.01
11605;BME280;5858;43.076;25.626;2022-11-15T09:37:23;99771.00;;;10.43;95.09
11605;BME280;5858;43.076;25.626;2022-11-15T09:39:52;99806.19;;;10.71;95.17
11605;BME280;5858;43.076;25.626;2022-11-15T09:42:33;99818.41;;;10.65;95.79
11605;BME280;5858;43.076;25.626;2022-11-15T09:45:14;99766.31;;;10.45;95.61
11605;BME280;5858;43.076;25.626;2022-11-15T09:48:00;99777.16;;;10.52;94.07
11605;BME280;5858;43.076;25.626;2022-11-15T09:50:36;99716.50;;;10.20;95.03
11605;BME280;5858;43.076;25.626;2022-11-15T09:53:14;99687.59;;;10.15;95.16
11605;BME280;5858;43.076;25.626;2022-11-15T09:55:59;99756.34;;;10.70;95.35
11605;BME280;5858;43.076;25.626;2022-11-15T09:58:33;99663.38;;;10.17;94.39
11605;BME280;5858;43.076;25.626;2022-11-15T10:01:07;99725.66;;;10.50;93.64
11605;BME280;5858;43.076;25.626;2022-11-15T10:03:37;99769.13;;;10.99;92.99
11605;BME280;5858;43.076;25.626;2022-11-15T10:06:10;99695.28;;;10.26;93.84
11605;BME280;5858;43.076;25.626;2022-11-15T10:08:51;99771.41;;;10.71;95.78
11605;BME280;5858;43.076;25.626;2022-11-15T10:11:24;99775.78;;;10.64;96.84
11605;BME280;5858;43.076;25.626;2022-11-15T10:13:55;99730.88;;;10.35;96.60
11605;BME280;5858;43.076;25.626;2022-11-15T10:16:52;99708.81;;;10.41;97.27
11605;BME280;5858;43.076;25.626;2022-11-15T10:19:27;99748.31;;;10.70;96.59
11605;BME280;5858;43.076;25.626;2022-11-15T10:24:52;99755.44;;;10.47;97.58
11605;BME280;5858;43.076;25.626;2022-11-15T10:27:26;99715.06;;;10.01;98.82
11605;BME280;5858;43.076;25.626;2022-11-15T10:29:53;99744.13;;;10.20;98.96
11605;BME280;5858;43.076;25.626;2022-11-15T10:32:21;99692.50;;;9.95;99.28
11605;BME280;5858;43.076;25.626;2022-11-15T10:34:49;99730.03;;;10.18;100.00
11605;BME280;5858;43.076;25.626;2022-11-15T10:37:27;99675.66;;;9.62;100.00
11605;BME280;5858;43.076;25.626;2022-11-15T10:40:03;99719.06;;;9.97;100.00
11605;BME280;5858;43.076;25.626;2022-11-15T10:42:32;99587.38;;;8.91;100.00
11605;BME280;5858;43.076;25.626;2022-11-15T10:44:59;99714.41;;;9.74;100.00
11605;BME280;5858;43.076;25.626;2022-11-15T10:47:30;99712.56;;;9.59;100.00
11605;BME280;5858;43.076;25.626;2022-11-15T10:50:00;99709.72;;;9.60;100.00
11605;BME280;5858;43.076;25.626;2022-11-15T10:52:28;99696.06;;;9.47;100.00
11605;BME280;5858;43.076;25.626;2022-11-15T10:55:01;99682.84;;;9.45;100.00
11605;BME280;5858;43.076;25.626;2022-11-15T10:57:33;99669.31;;;9.31;100.00
11605;BME280;5858;43.076;25.626;2022-11-15T11:00:06;99634.78;;;9.13;100.00
11605;BME280;5858;43.076;25.626;2022-11-15T11:02:36;99698.56;;;9.49;100.00
11605;BME280;5858;43.076;25.626;2022-11-15T11:05:05;99693.84;;;9.67;100.00
11605;BME280;5858;43.076;25.626;2022-11-15T11:07:34;99667.97;;;9.43;100.00
11605;BME280;5858;43.076;25.626;2022-11-15T11:10:05;99693.53;;;9.54;100.00
11605;BME280;5858;43.076;25.626;2022-11-15T11:12:45;99658.81;;;9.21;100.00
11605;BME280;5858;43.076;25.626;2022-11-15T11:15:13;99598.88;;;8.83;100.00
11605;BME280;5858;43.076;25.626;2022-11-15T11:17:54;99574.53;;;8.94;100.00
11605;BME280;5858;43.076;25.626;2022-11-15T11:20:28;99665.50;;;9.50;100.00
11605;BME280;5858;43.076;25.626;2022-11-15T11:23:03;99606.06;;;9.23;100.00
11605;BME280;5858;43.076;25.626;2022-11-15T11:25:35;99654.66;;;9.51;100.00
11605;BME280;5858;43.076;25.626;2022-11-15T11:28:16;99553.84;;;8.96;100.00
11605;BME280;5858;43.076;25.626;2022-11-15T11:31:04;99668.44;;;9.79;100.00
11605;BME280;5858;43.076;25.626;2022-11-15T11:33:39;99595.22;;;9.33;100.00
11605;BME280;5858;43.076;25.626;2022-11-15T11:36:18;99660.41;;;9.87;100.00
11605;BME280;5858;43.076;25.626;2022-11-15T11:38:58;99585.69;;;9.46;100.00
11605;BME280;5858;43.076;25.626;2022-11-15T11:41:39;99651.56;;;10.03;100.00
11605;BME280;5858;43.076;25.626;2022-11-15T11:44:18;99654.50;;;10.16;100.00
11605;BME280;5858;43.076;25.626;2022-11-15T11:46:55;99653.56;;;10.01;100.00
11605;BME280;5858;43.076;25.626;2022-11-15T11:49:26;99622.00;;;9.96;100.00
11605;BME280;5858;43.076;25.626;2022-11-15T11:52:00;99645.69;;;10.07;100.00
11605;BME280;5858;43.076;25.626;2022-11-15T11:54:36;99603.28;;;9.96;100.00
11605;BME280;5858;43.076;25.626;2022-11-15T11:57:12;99602.94;;;9.91;100.00
11605;BME280;5858;43.076;25.626;2022-11-15T11:59:44;99544.03;;;9.76;100.00
11605;BME280;5858;43.076;25.626;2022-11-15T12:02:18;99645.66;;;10.16;100.00
11605;BME280;5858;43.076;25.626;2022-11-15T12:04:50;99651.19;;;10.22;100.00
11605;BME280;5858;43.076;25.626;2022-11-15T12:07:22;99630.75;;;10.29;100.00
11605;BME280;5858;43.076;25.626;2022-11-15T12:09:55;99630.09;;;10.27;100.00
11605;BME280;5858;43.076;25.626;2022-11-15T12:12:29;99597.09;;;9.88;100.00
11605;BME280;5858;43.076;25.626;2022-11-15T12:15:02;99613.97;;;9.96;100.00
11605;BME280;5858;43.076;25.626;2022-11-15T12:17:32;99577.72;;;9.94;100.00
11605;BME280;5858;43.076;25.626;2022-11-15T12:20:00;99583.00;;;10.10;100.00
11605;BME280;5858;43.076;25.626;2022-11-15T12:22:36;99545.78;;;9.53;100.00
11605;BME280;5858;43.076;25.626;2022-11-15T12:25:14;99531.28;;;9.39;100.00
11605;BME280;5858;43.076;25.626;2022-11-15T12:27:46;99554.81;;;9.36;100.00
11605;BME280;5858;43.076;25.626;2022-11-15T12:30:20;99576.00;;;9.54;100.00
11605;BME280;5858;43.076;25.626;2022-11-15T12:32:52;99594.28;;;9.81;100.00
11605;BME280;5858;43.076;25.626;2022-11-15T12:35:26;99477.78;;;9.08;100.00
11605;BME280;5858;43.076;25.626;2022-11-15T12:37:54;99500.44;;;9.21;100.00
11605;BME280;5858;43.076;25.626;2022-11-15T12:40:24;99561.66;;;9.46;100.00
11605;BME280;5858;43.076;25.626;2022-11-15T12:46:02;99600.47;;;9.82;100.00
11605;BME280;5858;43.076;25.626;2022-11-15T12:48:58;99561.25;;;9.74;100.00
11605;BME280;5858;43.076;25.626;2022-11-15T12:54:55;99580.56;;;9.92;100.00
11605;BME280;5858;43.076;25.626;2022-11-15T12:57:30;99585.41;;;9.97;100.00
11605;BME280;5858;43.076;25.626;2022-11-15T12:59:59;99585.31;;;9.66;100.00
11605;BME280;5858;43.076;25.626;2022-11-15T13:02:32;99583.16;;;9.61;100.00
11605;BME280;5858;43.076;25.626;2022-11-15T13:08:00;99545.56;;;9.71;100.00
11605;BME280;5858;43.076;25.626;2022-11-15T13:10:32;99568.22;;;9.83;100.00
11605;BME280;5858;43.076;25.626;2022-11-15T13:13:01;99476.75;;;9.18;100.00
11605;BME280;5858;43.076;25.626;2022-11-15T13:15:45;99553.84;;;9.84;100.00
11605;BME280;5858;43.076;25.626;2022-11-15T13:18:40;99507.66;;;9.67;100.00
11605;BME280;5858;43.076;25.626;2022-11-15T13:21:22;99515.69;;;9.67;100.00
11605;BME280;5858;43.076;25.626;2022-11-15T13:24:16;99476.91;;;9.24;100.00
11605;BME280;5858;43.076;25.626;2022-11-15T13:26:44;99491.88;;;9.41;100.00
11605;BME280;5858;43.076;25.626;2022-11-15T13:29:18;99558.41;;;9.75;100.00
11605;BME280;5858;43.076;25.626;2022-11-15T13:31:49;99455.09;;;9.12;100.00
11605;BME280;5858;43.076;25.626;2022-11-15T13:34:24;99504.22;;;9.42;100.00
11605;BME280;5858;43.076;25.626;2022-11-15T13:36:52;99556.41;;;9.69;100.00
11605;BME280;5858;43.076;25.626;2022-11-15T13:39:27;99549.88;;;9.80;100.00
11605;BME280;5858;43.076;25.626;2022-11-15T13:41:55;99471.69;;;9.47;100.00
11605;BME280;5858;43.076;25.626;2022-11-15T13:44:23;99469.00;;;9.47;100.00
11605;BME280;5858;43.076;25.626;2022-11-15T13:47:03;99540.00;;;9.81;100.00
11605;BME280;5858;43.076;25.626;2022-11-15T13:49:34;99530.13;;;9.89;100.00
11605;BME280;5858;43.076;25.626;2022-11-15T13:52:03;99536.63;;;9.95;100.00
11605;BME280;5858;43.076;25.626;2022-11-15T13:54:34;99528.19;;;9.75;100.00
11605;BME280;5858;43.076;25.626;2022-11-15T13:57:05;99492.22;;;9.46;100.00